This site, now in its 15th season, is a labour of love and fun from one of Ottawa's most avid time trialists and number crunchers. It adheres to and is permitted by the laws of Canada, promotes the objectives of every bicycle club whose results are shown, and is donated free of charge by myself for your enjoyment and usage. If you would like results from series you ride in to be shown here, give me (celia@drmath.ca) a shout!


Index Page
ATT OTT WTT AATT CFCTT VVVTT
Help resultformat:
Case-sensitive

OBC Open TT Series - 2010-Jul-22 - 15km (Rockliffe Pkwy) (EvtFactor = 0.9454)

Weather (18:00): Partly Cloudy. Temp.: 26°C, Humidity: 51%, Dew Point: 15°C, Wind: W 15km/h, Pressure: 101.5kPa, Vis: 24km, Humidex: 30.
Weather (19:00): Mostly Cloudy. Temp.: 25°C, Humidity: 55%, Dew Point: 15°C, Wind: W 13km/h, Pressure: 101.5kPa, Vis: 24km, Humidex: 29.
Weather (20:00): Partly Cloudy. Temp.: 25°C, Humidity: 54%, Dew Point: 15°C, Wind: W 9km/h, Pressure: 101.5kPa, Vis: 24km, Humidex: 29.

Send photos with description (when/where/what) of yourself on or off of bike to celia@drmath.ca

Many indicated that they found the wind difficult on the return trip, and again, the air pressure was above 101 kiloPascals, which Jim Glover said was more of a detriment to speedy performances than tonight's wind was. However, the riders continue to get fitter, and about 37% (25 out of 67) of those with earlier 2010 OTT times improved upon their previous season/series best. Database improvements were achieved by about 20% of those who had ridden a previous 15km time trial, and three of those, Cam Jones, Vincent Joinette and Patrick Pelda, all new to time trials this year, improved by more than 10%. Cam, with a 17% improvement in this, his third time trial, let me know that he was enjoying the time trials with upgraded equipment each time - last week with an aero helmet, and now a more aerodynamic bicycle. There were some great category performances throughout the age ranges, and I have shown performance ratios relative to the previous database best for each category. Pressing the "PerfRatio to" button with the "CB Db Pre" selected would sort the results by the comparison of each rider's cube speed relative to the best cube speed previously in the database for the rider's category. Congratulations are in order for Jeremie Lacasse, Rick Sudac, Bailin Xie, Sophie Matte, Hermann Kerckhoff and Ron Amos for each doing more than 90% of the previous Database Best for their category, despite tonight's sub-optimal conditions. It's even more fun to go into the Advanced result format of this site and check out the handicap rankings. Check the results handicapped in accordance with the Brtish VTTA Age/Gender Standards or check the current OBC Age Handicaps. Congratulations to Rick Sudac for topping both of these lists, and for Hermann Kerckhoff and Ron Amos for being 2nd or 3rd, depending upon which method is used.

These results were first posted on the OBC site circa 12:00 on 2010-Jul-23 and are available here for your added pleasure and analysis.

(Note that I'd gladly type in the results each time, getting the results up within a few of hours of the event, as I did for the WTT series for the decade beginning in 1998, and for the OTT series from 1999-2002 and again in 2006. Regardless, I will continue to donate this statistical time trial result service to you, even though doing so has, surprisingly, resulted in my EXPULSION from the OBC ! I guess I must at least thank the OBC executive for taking on the grunt work and leaving me to do just the more interesting side of my result service, but I do want to make it absolutely clear that I would gladly help the OBC Board input the results, lest complaints about me just lazily sucking in the results surface! The choice is theirs. If they want the help, I'm here and will do it - even if I remain expelled! Such is my level of dedication to public service and disinterest in private politics.)

 
 

BESTS?
 
1 Amos, Ron  OBC/RWR 19:08 47.038 1/75 VBM 1/13 0.9895
2 Parniak, Robert  OBC 19:47 45.493 2/75 VAM 1/13 1.0410
3 Rendall, Glen  RWR 20:02 44.925 3/75 VBM 2/13 0.9557
4 Sudac, Rick  OBC/RWR 20:07 44.739 4/75 VDM 1/6 1.0125
5 Tsilemos, Jim RWR 20:30 43.902 5/75 VBM 3/13 0.9710
6 Diaz, Rodrigo  OBC/EUR 20:32 43.831 6/75 VAM 2/13 1.0024
7 Sugden, David OBC/RDO 20:52 43.131 7/75 VBM 4/13 0.9551
8 Hanrahan, Mason EUR 21:00 42.857 8/75 SEM 1/5 0.8725
9 Cameron, Allen  OBC/RWR 21:11 42.486 9/75 VCM 1/19 0.9835
10 Campbell, Greg OBC 21:12 42.453 10/75 VAM 3/13 0.9790
11 Campbell, Colin  OBC 21:15 42.353 11/75 VCM 2/19 0.9378
12 Matte, Sophie  OBC 21:17 42.287 12/75 VAF 1/4 1.0118
13 Gagnon, Alexandre  OBC 21:18 42.254 13/75 SEM 2/5 1.0381
14 Christie, Greg  OBC/RWR 21:21 42.155 14/75 VCM 3/19 0.9653
McAneney, Paul OBC 21:21 42.155 14/75 VAM 4/13 0.9791
16 McKay, Allison  OBC/RDO 21:22 42.122 16/75 VBF 1/6 0.9860
17 Spooner, Tricia  SRC 21:25 42.023 17/75 VBF 2/6 1.0211
18 Mullington, Chris WQW 21:32 41.796 18/75 VCM 4/19 0.9364
19 Schuck, Peter  OBC 21:41 41.507 19/75 VCM 5/19 0.9908
20 Jones, Cam OBC 21:50 41.221 20/75 VAM 5/13 1.1715
21 Farish, Neil  OBC/RWR 21:57 41.002 21/75 VCM 6/19 0.9707
22 Posthuma, Hans  OBC 22:08 40.663 22/75 VCM 7/19 0.9932
23 Brunet, Chris CYC 22:14 40.480 23/75 SEM 3/5 1.0045
24 Till, Michael WQW 22:28 40.059 24/75 VCM 8/19 0.9518
25 Padilla, Alberto EUR 22:30 40.000 25/75 VCM 9/19 0.9757
26 Robitaille, Brian  OBC 22:31 39.970 26/75 VBM 5/13 0.9540
27 Lacasse, Jeremie  OBC 22:32 39.941 27/75 MIM 1/1 0.9890
28 Pelda, Patrick WQW 22:33 39.911 28/75 VAM 6/13 1.1221
29 Kerckhoff, Hermann  RWR 22:35 39.852 29/75 VEM 1/1 0.9933
30 Dorego, Jean-Louis OBC 22:41 39.677 30/75 VCM 10/19 0.9978
31 McKay, Andrea  OBC 22:42 39.648 31/75 VBF 3/6 0.9439
32 Moerman, Bram  OBC 22:47 39.503 32/75 VDM 2/6 0.9804
33 Thompson, William OBC 23:12 38.793 33/75 VBM 6/13 0.9101
34 Burge, Larry  OBC 23:13 38.765 34/75 VBM 7/13 0.9701
35 Henry, Mike OBC 23:14 38.737 35/75 VAM 7/13 0.9764
36 Basu, Ben  OBC 23:18 38.627 36/75 VBM 8/13  
37 Hicks, Bob  OBC 23:20 38.571 37/75 VDM 3/6 0.9829
38 Cheney, Paul OBC 23:29 38.325 38/75 VDM 4/6 1.0498
39 Wilkins, Carl  OBC 23:30 38.298 39/75 VAM 8/13 1.1011
40 Samborsky, Mark OBC 23:31 38.271 40/75 VBM 9/13 1.0674
41 Blais, Bob OBC 23:33 38.217 41/75 VCM 11/19 0.9075
42 Imbrogno, Giorgio  OBC 23:43 37.948 42/75 VDM 5/6 1.0084
43 Simard, Martin OBC 23:45 37.895 43/75 VCM 12/19 1.0384
44 Langevin, Roger  OBC 23:46 37.868 44/75 VBM 10/13 0.9626
45 Coldwell, Michael  ABC 23:54 37.657 45/75 VCM 13/19  
46 Lennox, Patrick OBC 24:08 37.293 46/75 VAM 9/13  
47 Marleau, Dianne  OBC/RWR 24:09 37.267 47/75 VBF 4/6 0.9000
Yaeger, Dave  OBC 24:09 37.267 47/75 VCM 14/19 1.1657
s 49 McInnis, Celia  ABC/CYF 24:13 37.164 49/75 VCF 1/2 1.0740
50 Déry, Nicolas  OBC 24:29 36.760 50/75 VAM 10/13 0.9637
51 Wong, Adrian OBC 24:30 36.735 51/75 VAM 11/13 0.8455
52 Ingham, Alison  OBC/RWR 24:31 36.710 52/75 VBF 5/6 0.9284
Lacasse, André OBC 24:31 36.710 52/75 VCM 15/19 1.0309
54 Budd, Daniel OBC 24:33 36.660 54/75 VBM 11/13 1.0989
55 Czaban, Christina  OBC 24:36 36.585 55/75 SEF 1/2 1.0266
56 Janusauskas, Vytas  OBC 24:38 36.536 56/75 VCM 16/19 1.0061
57 Joinette, Vincent --- 24:39 36.511 57/75 CAM 1/1 1.1267
58 de Wit, Stephan OBC 24:50 36.242 58/75 VAM 12/13  
59 Prud'homme, Mario OBC 25:01 35.976 59/75 SEM 4/5  
60 Dionne, Suzanne  OBC 25:09 35.785 60/75 VCF 2/2 0.9263
Xie, Bailin  OBC 25:09 35.785 60/75 MIF 1/1 1.0650
62 Wilson, Ali OBC 25:14 35.667 62/75 SEF 2/2 0.9941
63 Rees, Stephanie  OBC 25:23 35.456 63/75 VAF 2/4 0.9573
64 Kirkey, Justin OBC 25:26 35.387 64/75 SEM 5/5 1.0974
65 Gillis, Ian OBC 25:31 35.271 65/75 VCM 17/19  
66 Kline, Patrick OBC 26:10 34.395 66/75 VCM 18/19 0.9219
67 Chiesa, Maria OBC/CYF 26:23 34.112 67/75 VAF 3/4 1.0133
68 Dal-Cin, Mauro EUR 26:52 33.499 68/75 VCM 19/19 0.9186
69 Schwartz, Kimberley OBC 27:22 32.887 69/75 VAF 4/4 0.9819
70 McLaren, Louise  OBC 27:33 32.668 70/75 VBF 6/6 0.8618
71 Roach, John OBC 27:45 32.432 71/75 VBM 12/13 0.9382
72 Ajersch, Mary  OBC 29:42 30.303 72/75 VEF 1/1 0.9983
73 LeBrun, Robert OBC 32:08 28.008 73/75 VAM 13/13 0.8979
74 Poulsen, Ron OBC 32:50 27.411 74/75 VDM 6/6  
75 Armstrong, Brian OBC DNF   75/75 VBM 13/13  
 
Average Speed of all of the above 74 finishes (1110km in 29:05:23):38.158
>>>Average of the Average Speeds for these 74 finishes38.553<<<
 

The number of data records shown above is 75
The server processing of your query took: 4 wallclock secs ( 0.09 usr + 0.00 sys = 0.09 CPU)

Thanks to our Helpers: Avery Burdett, Grégoire Crevier, Neil Farish, Leona Gray, Gunter Hauschildt, Alex McKnight, Jacques Morvan, Joanne Schuck.

     


Apr 2 (Good Friday)
May 4 (10km) May 6 May 11 (10km) May 13 May 18 May 18 (10km) May 20 May 25 May 25 (10km) May 27 May 30 (40km) May 31 (10km)
Jun 1 Jun 1 Jun 3 Jun 8 Jun 8 Jun 10 Jun 14 (10km) Jun 15 Jun 15 Jun 17 Jun 22 (rained out) Jun 22 Jun 24 Jun 28 (10km) Jun 29 Jun 29
Jul 4 (40km) Jul 6 Jul 6 Jul 8 Jul 12 Jul 13 Jul 13 Jul 15 Jul 20 Jul 20
  Jul 22  
Jul 26 Jul 27 Jul 27 Jul 29
Aug 3 ((cancelled)) Aug 3 Aug 5 Aug 8 (40km) Aug 10 Aug 10 Aug 12 Aug 15 (40km) Aug 17 Aug 17 Aug 19 Aug 23 Aug 24 Aug 24 Aug 26 Aug 31 Aug 31 (Invitational)
Sep 2 Sep 7 Sep 9 Sep 12 (40km) Sep 14 Sep 19 (40km) Sep 21 Sep 28

OTT Rankings
Best       Best by category
WTT Rankings for All Participants
4 Best Speeds (≥3 15km, ≤1 10km)     4 Best Speeds (≥3 15km, ≤1 10km) by category
OTT Best Three 15km Rankings
Overall     by category     age-Hcap Female   age-Hcap Male
[OWA]TT BAR Ranking
Overall     by category     Rider "Consistency-Graph"
ABC BAR Ranking
Overall     by category     Rider "Consistency-Graph"
Other years
TT Calculator All TT People All TT events
ABC Home VVV Home
CKAP GOLD MEDAL
Other Links

Note: OTT data from 2003 through 2006-Apr-14 and 2007-Apr-06-? and WTT from 2008-? is taken from the official OBC site.

Please send your comments and suggestions to: Celia McInnis
Copyright © 1998-2011 Celia McInnis. All rights reserved. Links are welcomed.